createdAt,value
2018-10-07T00:02:23.961Z,8.60
2018-10-07T00:04:52.484Z,11.77
2018-10-07T00:07:21.099Z,8.07
2018-10-07T00:09:49.613Z,10.30
2018-10-07T00:12:18.170Z,10.50
2018-10-07T00:14:46.614Z,9.90
2018-10-07T00:17:15.113Z,8.90
2018-10-07T00:19:43.619Z,9.73
2018-10-07T00:22:12.186Z,10.33
2018-10-07T00:24:40.781Z,10.73
2018-10-07T00:27:10.347Z,11.03
2018-10-07T00:29:38.770Z,9.07
2018-10-07T00:32:12.861Z,8.40
2018-10-07T00:34:41.343Z,8.70
2018-10-07T00:37:09.983Z,10.60
2018-10-07T00:39:38.435Z,9.70
2018-10-07T00:42:07.122Z,9.23
2018-10-07T00:44:35.780Z,13.40
2018-10-07T00:47:04.220Z,8.73
2018-10-07T00:49:32.895Z,10.00
2018-10-07T00:52:01.475Z,11.07
2018-10-07T00:54:29.966Z,12.40
2018-10-07T00:56:58.469Z,10.13
2018-10-07T00:59:26.946Z,10.53
2018-10-07T01:01:55.399Z,12.27
2018-10-07T01:04:23.852Z,9.67
2018-10-07T01:06:52.348Z,9.77
2018-10-07T01:09:20.911Z,10.87
2018-10-07T01:11:49.368Z,9.83
2018-10-07T01:14:17.800Z,11.30
2018-10-07T01:16:46.386Z,13.80
2018-10-07T01:19:14.864Z,10.30
2018-10-07T01:21:43.397Z,11.40
2018-10-07T01:24:11.829Z,12.73
2018-10-07T01:26:40.367Z,15.27
2018-10-07T01:29:08.920Z,10.53
2018-10-07T01:31:37.385Z,13.07
2018-10-07T01:34:05.832Z,11.83
2018-10-07T01:36:35.749Z,12.33
2018-10-07T01:39:08.203Z,10.87
2018-10-07T01:41:36.782Z,12.87
2018-10-07T01:44:05.323Z,13.40
2018-10-07T01:46:33.797Z,13.73
2018-10-07T01:49:02.271Z,13.40
2018-10-07T01:51:30.760Z,17.23
2018-10-07T01:53:59.211Z,22.50
2018-10-07T01:56:27.724Z,16.33
2018-10-07T01:58:56.189Z,18.33
2018-10-07T02:01:24.698Z,20.27
2018-10-07T02:03:53.153Z,21.93
2018-10-07T02:06:21.603Z,23.47
2018-10-07T02:08:50.139Z,27.93
2018-10-07T02:11:18.850Z,25.17
2018-10-07T02:13:47.438Z,28.00
2018-10-07T02:16:16.621Z,27.30
2018-10-07T02:18:45.892Z,32.13
2018-10-07T02:21:15.127Z,31.10
2018-10-07T02:23:43.806Z,31.80
2018-10-07T02:26:12.301Z,32.47
2018-10-07T02:28:40.985Z,32.77
2018-10-07T02:31:09.988Z,34.03
2018-10-07T02:33:39.122Z,36.93
2018-10-07T02:36:07.613Z,33.70
2018-10-07T02:38:36.483Z,37.10
2018-10-07T02:41:05.849Z,36.63
2018-10-07T02:43:34.607Z,37.23
2018-10-07T02:46:03.377Z,43.93
2018-10-07T02:48:32.273Z,48.87
2018-10-07T02:51:00.899Z,53.40
2018-10-07T02:53:29.485Z,51.97
2018-10-07T02:55:58.014Z,51.13
2018-10-07T02:58:27.203Z,58.57
2018-10-07T03:00:55.694Z,55.70
2018-10-07T03:03:24.144Z,59.07
2018-10-07T03:05:52.634Z,61.23
2018-10-07T03:08:21.077Z,59.03
2018-10-07T03:10:49.529Z,62.13
2018-10-07T03:13:18.115Z,59.83
2018-10-07T03:15:46.539Z,63.10
2018-10-07T03:18:15.056Z,58.90
2018-10-07T03:20:43.498Z,61.40
2018-10-07T03:23:12.036Z,60.80
2018-10-07T03:25:40.514Z,58.77
2018-10-07T03:28:08.995Z,59.73
2018-10-07T03:30:37.513Z,57.60
2018-10-07T03:33:06.159Z,62.20
2018-10-07T03:35:34.603Z,53.83
2018-10-07T03:38:03.164Z,56.07
2018-10-07T03:40:31.733Z,48.33
2018-10-07T03:43:00.191Z,50.60
2018-10-07T03:45:28.726Z,50.73
2018-10-07T03:47:57.200Z,50.23
2018-10-07T03:50:25.836Z,45.73
2018-10-07T03:52:54.396Z,47.80
2018-10-07T03:55:25.948Z,46.73
2018-10-07T03:57:54.473Z,49.47
2018-10-07T04:00:23.184Z,51.90
2018-10-07T04:02:51.695Z,51.00
2018-10-07T04:05:20.765Z,49.67
2018-10-07T04:07:49.381Z,37.70
2018-10-07T04:10:17.819Z,35.87
2018-10-07T04:12:46.266Z,36.97
2018-10-07T04:15:14.780Z,30.80
2018-10-07T04:17:43.337Z,24.60
2018-10-07T04:20:11.823Z,24.77
2018-10-07T04:22:40.299Z,24.23
2018-10-07T04:25:08.868Z,21.60
2018-10-07T04:27:37.514Z,16.37
2018-10-07T04:30:06.061Z,17.00
2018-10-07T04:32:35.129Z,16.33
2018-10-07T04:35:03.744Z,14.27
2018-10-07T04:37:32.213Z,11.97
2018-10-07T04:40:00.796Z,18.00
2018-10-07T04:42:29.195Z,12.47
2018-10-07T04:44:57.683Z,11.27
2018-10-07T04:47:26.174Z,12.10
2018-10-07T04:49:54.683Z,9.83
2018-10-07T04:52:23.119Z,14.77
2018-10-07T04:54:51.605Z,10.93
2018-10-07T04:57:20.133Z,7.67
2018-10-07T04:59:48.561Z,6.57
2018-10-07T05:02:17.088Z,6.50
2018-10-07T05:04:45.556Z,6.50
2018-10-07T05:07:14.031Z,4.63
2018-10-07T05:09:42.524Z,6.37
2018-10-07T05:12:11.035Z,6.50
2018-10-07T05:14:40.380Z,6.60
2018-10-07T05:17:09.842Z,5.47
2018-10-07T05:19:38.355Z,8.30
2018-10-07T05:22:06.910Z,4.57
2018-10-07T05:24:35.497Z,10.87
2018-10-07T05:27:03.952Z,7.30
2018-10-07T05:29:32.404Z,5.80
2018-10-07T05:32:00.844Z,7.87
2018-10-07T05:34:29.322Z,4.70
2018-10-07T05:36:57.803Z,3.30
2018-10-07T05:39:26.275Z,2.90
2018-10-07T05:41:54.700Z,4.07
2018-10-07T05:44:23.193Z,4.70
2018-10-07T05:46:51.715Z,4.10
2018-10-07T05:49:20.152Z,2.67
2018-10-07T05:51:48.601Z,2.73
2018-10-07T05:54:17.043Z,2.70
2018-10-07T05:56:45.508Z,3.20
2018-10-07T05:59:14.327Z,3.17
2018-10-07T06:01:43.960Z,1.50
2018-10-07T06:05:16.358Z,2.10
2018-10-07T06:07:45.048Z,1.50
2018-10-07T06:10:13.543Z,2.83
2018-10-07T06:12:42.067Z,2.80
2018-10-07T06:15:46.088Z,3.53
2018-10-07T06:18:14.575Z,2.10
2018-10-07T06:20:43.051Z,1.90
2018-10-07T06:23:11.651Z,1.30
2018-10-07T06:25:40.124Z,2.00
2018-10-07T06:28:08.648Z,3.30
2018-10-07T06:30:37.168Z,2.60
2018-10-07T06:33:05.668Z,2.87
2018-10-07T06:35:34.159Z,1.13
2018-10-07T06:38:02.635Z,1.30
2018-10-07T06:40:31.084Z,0.97
2018-10-07T06:42:59.612Z,5.27
2018-10-07T06:45:28.264Z,3.37
2018-10-07T06:47:56.760Z,2.10
2018-10-07T06:50:25.212Z,1.63
2018-10-07T06:52:53.713Z,2.37
2018-10-07T06:55:22.330Z,1.80
2018-10-07T06:57:50.769Z,3.53
2018-10-07T07:00:19.256Z,4.97
2018-10-07T07:02:47.752Z,4.20
2018-10-07T07:05:16.306Z,5.33
2018-10-07T07:07:44.817Z,4.03
2018-10-07T07:10:13.275Z,3.37
2018-10-07T07:12:41.862Z,4.53
2018-10-07T07:15:10.307Z,1.97
2018-10-07T07:17:38.833Z,5.10
2018-10-07T07:20:07.475Z,1.93
2018-10-07T07:22:36.092Z,2.37
2018-10-07T07:25:04.680Z,3.40
2018-10-07T07:27:33.167Z,2.27
2018-10-07T07:30:01.628Z,2.37
2018-10-07T07:32:30.155Z,3.07
2018-10-07T07:34:58.637Z,2.53
2018-10-07T07:37:27.134Z,3.03
2018-10-07T07:39:55.597Z,2.40
2018-10-07T07:42:24.149Z,1.23
2018-10-07T07:44:52.641Z,3.33
2018-10-07T07:47:21.237Z,2.17
2018-10-07T07:49:49.779Z,1.47
2018-10-07T07:52:18.418Z,2.80
2018-10-07T07:54:46.904Z,1.73
2018-10-07T07:57:15.412Z,3.70
2018-10-07T07:59:43.984Z,1.57
2018-10-07T08:02:12.473Z,0.87
2018-10-07T08:04:40.916Z,0.77
2018-10-07T08:07:09.501Z,1.40
2018-10-07T08:09:37.989Z,4.43
2018-10-07T08:12:06.499Z,1.93
2018-10-07T08:14:34.944Z,2.50
2018-10-07T08:17:03.534Z,1.80
2018-10-07T08:19:31.998Z,4.07
2018-10-07T08:22:00.464Z,1.70
2018-10-07T08:24:28.951Z,1.63
2018-10-07T08:26:57.507Z,1.27
2018-10-07T08:29:26.118Z,1.90
2018-10-07T08:31:54.567Z,1.53
2018-10-07T08:34:23.106Z,1.63
2018-10-07T08:36:51.607Z,1.30
2018-10-07T08:39:20.074Z,2.23
2018-10-07T08:41:48.515Z,1.27
2018-10-07T08:44:17.036Z,1.77
2018-10-07T08:46:45.542Z,1.03
2018-10-07T08:49:14.108Z,2.67
2018-10-07T08:51:42.536Z,1.30
2018-10-07T08:54:11.110Z,3.90
2018-10-07T08:56:39.681Z,3.53
2018-10-07T08:59:08.221Z,2.73
2018-10-07T09:01:36.684Z,1.63
2018-10-07T09:04:05.940Z,1.80
2018-10-07T09:06:34.526Z,1.77
2018-10-07T09:09:03.172Z,1.73
2018-10-07T09:11:31.812Z,3.07
2018-10-07T09:14:00.258Z,3.30
2018-10-07T09:16:28.876Z,2.80
2018-10-07T09:18:57.334Z,2.23
2018-10-07T09:21:26.766Z,2.23
2018-10-07T09:23:55.248Z,2.53
2018-10-07T09:26:23.808Z,4.17
2018-10-07T09:28:52.358Z,1.97
2018-10-07T09:31:20.991Z,2.10
2018-10-07T09:33:49.418Z,2.57
2018-10-07T09:36:17.989Z,3.30
2018-10-07T09:38:46.468Z,1.93
2018-10-07T09:41:14.922Z,3.10
2018-10-07T09:43:43.410Z,1.13
2018-10-07T09:46:12.028Z,2.20
2018-10-07T09:48:40.766Z,1.57
2018-10-07T09:51:09.242Z,5.27
2018-10-07T09:53:37.708Z,1.70
2018-10-07T09:56:08.301Z,2.63
2018-10-07T09:58:36.905Z,2.13
2018-10-07T10:01:05.599Z,2.53
2018-10-07T10:03:34.473Z,2.30
2018-10-07T10:06:03.086Z,1.53
2018-10-07T10:08:32.074Z,1.20
2018-10-07T10:11:00.586Z,1.37
2018-10-07T10:13:29.118Z,3.20
2018-10-07T10:15:57.618Z,3.27
2018-10-07T10:19:04.395Z,2.33
2018-10-07T10:21:37.085Z,2.67
2018-10-07T10:24:27.363Z,2.33
2018-10-07T10:28:08.655Z,1.73
2018-10-07T10:30:49.980Z,4.90
2018-10-07T10:33:25.589Z,3.07
2018-10-07T10:36:01.593Z,2.07
2018-10-07T10:39:13.040Z,2.00
2018-10-07T10:41:50.785Z,3.70
2018-10-07T10:44:23.280Z,2.93
2018-10-07T10:47:01.875Z,2.87
2018-10-07T10:49:37.741Z,2.13
2018-10-07T10:52:33.055Z,4.93
2018-10-07T10:55:13.774Z,3.27
2018-10-07T10:57:44.130Z,2.20
2018-10-07T11:00:16.752Z,3.67
2018-10-07T11:03:28.332Z,1.70
2018-10-07T11:06:42.553Z,2.23
2018-10-07T11:09:14.326Z,4.63
2018-10-07T11:11:56.863Z,1.43
2018-10-07T11:14:35.077Z,1.90
2018-10-07T11:17:16.580Z,3.43
2018-10-07T11:19:50.808Z,2.97
2018-10-07T11:24:38.086Z,3.43
2018-10-07T11:28:16.445Z,2.43
2018-10-07T11:30:55.692Z,2.17
2018-10-07T11:34:03.662Z,1.97
2018-10-07T11:36:42.444Z,3.40
2018-10-07T11:41:19.636Z,1.70
2018-10-07T11:43:56.059Z,2.47
2018-10-07T11:47:01.072Z,3.43
2018-10-07T11:49:42.586Z,3.13
2018-10-07T11:52:21.382Z,2.10
2018-10-07T11:54:57.872Z,1.40
2018-10-07T11:57:26.948Z,3.70
2018-10-07T11:59:55.757Z,2.20
2018-10-07T12:02:24.596Z,1.90
2018-10-07T12:04:53.512Z,3.30
2018-10-07T12:07:22.377Z,1.93
2018-10-07T12:09:50.918Z,1.67
2018-10-07T12:12:19.418Z,1.73
2018-10-07T12:14:48.111Z,1.67
2018-10-07T12:17:16.612Z,1.90
2018-10-07T12:19:45.093Z,2.90
2018-10-07T12:22:13.686Z,1.87
2018-10-07T12:24:42.228Z,1.27
2018-10-07T12:27:11.428Z,1.70
2018-10-07T12:29:40.002Z,2.77
2018-10-07T12:32:08.874Z,2.70
2018-10-07T12:34:37.324Z,1.80
2018-10-07T12:37:05.850Z,1.77
2018-10-07T12:39:34.652Z,1.53
2018-10-07T12:42:03.264Z,1.13
2018-10-07T12:44:31.753Z,2.10
2018-10-07T12:47:00.382Z,2.93
2018-10-07T12:49:29.022Z,1.73
2018-10-07T12:51:57.509Z,1.77
2018-10-07T12:54:26.068Z,1.83
2018-10-07T12:56:54.583Z,2.40
2018-10-07T12:59:23.069Z,2.50
2018-10-07T13:01:51.563Z,2.60
2018-10-07T13:04:20.226Z,3.83
2018-10-07T13:06:48.705Z,2.13
2018-10-07T13:09:17.183Z,2.43
2018-10-07T13:11:45.666Z,1.00
2018-10-07T13:14:14.156Z,2.13
2018-10-07T13:16:42.751Z,2.33
2018-10-07T13:19:11.293Z,1.53
2018-10-07T13:21:39.848Z,1.27
2018-10-07T13:24:08.353Z,3.53
2018-10-07T13:26:36.966Z,2.30
2018-10-07T13:29:05.617Z,0.83
2018-10-07T13:31:34.147Z,1.23
2018-10-07T13:34:02.681Z,1.23
2018-10-07T13:36:31.462Z,1.43
2018-10-07T13:39:00.438Z,3.17
2018-10-07T13:41:28.876Z,1.23
2018-10-07T13:43:57.345Z,0.77
2018-10-07T13:46:25.871Z,1.10
2018-10-07T13:48:54.402Z,1.83
2018-10-07T13:51:22.853Z,2.40
2018-10-07T13:53:51.319Z,1.50
2018-10-07T13:56:19.967Z,2.47
2018-10-07T13:58:48.469Z,1.10
2018-10-07T14:01:16.968Z,1.87
2018-10-07T14:03:45.468Z,1.33
2018-10-07T14:06:13.953Z,1.97
2018-10-07T14:08:42.598Z,2.93
2018-10-07T14:11:11.717Z,2.40
2018-10-07T14:13:40.175Z,0.80
2018-10-07T14:16:08.683Z,3.67
2018-10-07T14:18:37.189Z,1.80
2018-10-07T14:21:05.759Z,1.53
2018-10-07T14:23:34.317Z,3.07
2018-10-07T14:26:03.490Z,6.53
2018-10-07T14:28:32.007Z,1.53
2018-10-07T14:31:00.492Z,2.23
2018-10-07T14:33:28.983Z,1.53
2018-10-07T14:35:57.569Z,2.60
2018-10-07T14:38:26.014Z,2.87
2018-10-07T14:40:55.102Z,1.23
2018-10-07T14:43:23.632Z,1.00
2018-10-07T14:45:52.193Z,1.90
2018-10-07T14:48:20.799Z,2.60
2018-10-07T14:50:49.348Z,1.70
2018-10-07T14:53:17.774Z,1.47
2018-10-07T14:55:46.368Z,2.50
2018-10-07T14:58:16.139Z,2.33
2018-10-07T15:00:44.641Z,2.23
2018-10-07T15:03:13.570Z,2.58
2018-10-07T15:05:42.168Z,3.40
2018-10-07T15:08:10.609Z,7.90
2018-10-07T15:10:39.118Z,9.10
2018-10-07T15:13:07.565Z,9.30
2018-10-07T15:15:36.095Z,12.10
2018-10-07T15:18:04.676Z,1.90
2018-10-07T15:20:33.260Z,2.97
2018-10-07T15:23:01.845Z,1.77
2018-10-07T15:25:30.433Z,4.97
2018-10-07T15:27:58.985Z,8.57
2018-10-07T15:30:27.471Z,12.60
2018-10-07T15:32:56.022Z,6.10
2018-10-07T15:35:24.693Z,4.20
2018-10-07T15:37:53.193Z,2.57
2018-10-07T15:40:21.677Z,2.27
2018-10-07T15:42:50.148Z,4.07
2018-10-07T15:45:18.722Z,2.83
2018-10-07T15:47:47.212Z,1.73
2018-10-07T15:50:15.681Z,1.70
2018-10-07T15:52:44.229Z,7.97
2018-10-07T15:55:12.712Z,3.97
2018-10-07T15:57:41.175Z,3.13
2018-10-07T16:00:10.746Z,1.47
2018-10-07T16:02:39.242Z,4.00
2018-10-07T16:05:08.102Z,5.50
2018-10-07T16:07:36.746Z,2.13
2018-10-07T16:10:05.298Z,2.17
2018-10-07T16:12:33.824Z,2.07
2018-10-07T16:15:02.317Z,2.80
2018-10-07T16:17:31.267Z,4.00
2018-10-07T16:19:59.870Z,2.97
2018-10-07T16:22:28.357Z,2.97
2018-10-07T16:24:56.949Z,1.70
2018-10-07T16:27:25.410Z,1.97
2018-10-07T16:29:53.882Z,2.30
2018-10-07T16:32:22.433Z,1.90
2018-10-07T16:34:51.081Z,2.90
2018-10-07T16:37:19.580Z,2.40
2018-10-07T16:39:48.229Z,1.47
2018-10-07T16:42:16.834Z,2.93
2018-10-07T16:44:45.293Z,6.70
2018-10-07T16:47:13.804Z,4.20
2018-10-07T16:49:42.304Z,6.10
2018-10-07T16:52:10.914Z,3.27
2018-10-07T16:54:39.876Z,7.83
2018-10-07T16:57:08.336Z,4.70
2018-10-07T16:59:37.753Z,2.07
2018-10-07T17:02:06.362Z,3.37
2018-10-07T17:04:34.866Z,3.37
2018-10-07T17:07:03.563Z,4.40
2018-10-07T17:09:32.040Z,2.17
2018-10-07T17:12:00.536Z,1.73
2018-10-07T17:14:29.105Z,3.70
2018-10-07T17:16:57.624Z,2.23
2018-10-07T17:19:26.269Z,3.23
2018-10-07T17:21:55.316Z,3.77
2018-10-07T17:24:23.953Z,3.00
2018-10-07T17:26:52.650Z,1.60
2018-10-07T17:29:21.202Z,4.27
2018-10-07T17:31:49.688Z,2.67
2018-10-07T17:34:18.818Z,4.30
2018-10-07T17:36:47.500Z,1.27
2018-10-07T17:39:16.723Z,1.97
2018-10-07T17:41:51.727Z,2.67
2018-10-07T17:44:20.848Z,4.23
2018-10-07T17:46:49.310Z,4.07
2018-10-07T17:49:17.828Z,2.97
2018-10-07T17:51:46.341Z,2.60
2018-10-07T17:54:14.798Z,7.87
2018-10-07T17:56:43.356Z,2.70
2018-10-07T17:59:11.985Z,3.03
2018-10-07T18:01:40.596Z,2.83
2018-10-07T18:04:09.077Z,2.80
2018-10-07T18:06:37.603Z,3.23
2018-10-07T18:09:07.779Z,2.70
2018-10-07T18:11:36.346Z,3.77
2018-10-07T18:14:04.998Z,4.83
2018-10-07T18:16:33.475Z,4.47
2018-10-07T18:19:02.001Z,4.57
2018-10-07T18:21:30.486Z,7.70
2018-10-07T18:23:58.962Z,4.37
2018-10-07T18:26:28.089Z,5.17
2018-10-07T18:28:56.647Z,5.47
2018-10-07T18:31:25.101Z,3.63
2018-10-07T18:33:53.599Z,6.13
2018-10-07T18:36:22.097Z,5.90
2018-10-07T18:38:50.870Z,3.23
2018-10-07T18:41:19.313Z,5.30
2018-10-07T18:43:47.768Z,8.03
2018-10-07T18:46:16.456Z,4.97
2018-10-07T18:48:45.096Z,9.37
2018-10-07T18:51:13.886Z,3.83
2018-10-07T18:53:42.447Z,4.40
2018-10-07T18:56:11.224Z,4.53
2018-10-07T18:58:40.517Z,7.53
2018-10-07T19:01:09.251Z,5.37
2018-10-07T19:03:38.423Z,5.63
2018-10-07T19:06:06.899Z,5.63
2018-10-07T19:08:35.460Z,10.17
2018-10-07T19:11:04.077Z,9.37
2018-10-07T19:13:32.892Z,11.73
2018-10-07T19:16:01.448Z,21.87
2018-10-07T19:18:29.875Z,12.20
2018-10-07T19:20:58.536Z,11.63
2018-10-07T19:23:26.942Z,8.30
2018-10-07T19:25:55.431Z,7.20
2018-10-07T19:28:23.884Z,8.20
2018-10-07T19:30:52.393Z,5.37
2018-10-07T19:33:21.072Z,9.17
2018-10-07T19:35:49.828Z,4.67
2018-10-07T19:38:18.333Z,8.00
2018-10-07T19:40:46.886Z,7.77
2018-10-07T19:43:15.415Z,9.33
2018-10-07T19:45:44.107Z,8.10
2018-10-07T19:48:12.749Z,11.20
2018-10-07T19:50:41.333Z,11.40
2018-10-07T19:53:10.083Z,11.87
2018-10-07T19:55:38.551Z,13.97
2018-10-07T19:58:07.069Z,10.03
2018-10-07T20:00:35.712Z,11.23
2018-10-07T20:03:04.380Z,11.83
2018-10-07T20:05:32.859Z,10.80
2018-10-07T20:08:01.383Z,9.47
2018-10-07T20:10:29.927Z,11.07
2018-10-07T20:12:58.509Z,9.80
2018-10-07T20:15:27.061Z,7.73
2018-10-07T20:17:55.978Z,8.87
2018-10-07T20:20:24.526Z,11.17
2018-10-07T20:22:53.113Z,10.73
2018-10-07T20:25:21.688Z,14.23
2018-10-07T20:27:50.980Z,14.60
2018-10-07T20:30:19.600Z,13.57
2018-10-07T20:32:48.145Z,11.60
2018-10-07T20:35:16.650Z,9.70
2018-10-07T20:37:45.510Z,10.77
2018-10-07T20:40:14.059Z,8.17
2018-10-07T20:42:42.816Z,10.70
2018-10-07T20:45:11.307Z,7.27
2018-10-07T20:47:39.942Z,10.33
2018-10-07T20:50:08.556Z,8.27
2018-10-07T20:52:38.171Z,8.10
2018-10-07T20:55:06.701Z,9.57
2018-10-07T20:57:35.145Z,12.67
2018-10-07T21:00:03.778Z,10.50
2018-10-07T21:02:32.262Z,8.70
2018-10-07T21:05:07.099Z,9.77
2018-10-07T21:07:35.650Z,10.20
2018-10-07T21:10:04.542Z,7.67
2018-10-07T21:12:32.992Z,8.60
2018-10-07T21:15:01.483Z,8.07
2018-10-07T21:17:30.019Z,7.77
2018-10-07T21:19:58.457Z,7.20
2018-10-07T21:22:26.992Z,7.50
2018-10-07T21:24:55.409Z,6.60
2018-10-07T21:27:23.924Z,9.97
2018-10-07T21:29:52.550Z,10.13
2018-10-07T21:32:20.973Z,8.03
2018-10-07T21:34:49.559Z,10.80
2018-10-07T21:37:18.196Z,7.90
2018-10-07T21:39:46.704Z,6.80
2018-10-07T21:42:15.243Z,6.70
2018-10-07T21:44:43.849Z,5.27
2018-10-07T21:47:12.282Z,5.17
2018-10-07T21:49:40.794Z,7.50
2018-10-07T21:52:09.287Z,6.93
2018-10-07T21:54:37.854Z,6.73
2018-10-07T21:57:06.469Z,4.83
2018-10-07T21:59:34.955Z,5.13
2018-10-07T22:02:03.473Z,6.23
2018-10-07T22:04:32.533Z,6.73
2018-10-07T22:07:01.243Z,6.73
2018-10-07T22:09:29.747Z,5.00
2018-10-07T22:11:58.227Z,5.43
2018-10-07T22:14:26.816Z,3.30
2018-10-07T22:16:55.377Z,6.13
2018-10-07T22:19:24.094Z,7.43
2018-10-07T22:21:52.616Z,5.37
2018-10-07T22:24:21.126Z,7.43
2018-10-07T22:26:49.607Z,5.43
2018-10-07T22:29:18.311Z,3.87
2018-10-07T22:31:46.831Z,5.33
2018-10-07T22:34:15.254Z,4.87
2018-10-07T22:36:43.720Z,6.03
2018-10-07T22:39:12.172Z,4.70
2018-10-07T22:41:40.634Z,5.80
2018-10-07T22:44:09.129Z,5.53
2018-10-07T22:46:37.573Z,3.40
2018-10-07T22:49:07.006Z,5.10
2018-10-07T22:51:35.598Z,4.70
2018-10-07T22:54:04.084Z,4.93
2018-10-07T22:56:32.618Z,5.10
2018-10-07T22:59:01.224Z,4.10
2018-10-07T23:01:29.791Z,5.30
2018-10-07T23:03:58.323Z,6.37
2018-10-07T23:06:26.916Z,6.07
2018-10-07T23:08:55.342Z,5.03
2018-10-07T23:11:23.796Z,5.87
2018-10-07T23:13:52.221Z,6.43
2018-10-07T23:16:20.724Z,6.73
2018-10-07T23:18:49.193Z,5.03
2018-10-07T23:21:17.608Z,7.80
2018-10-07T23:23:46.230Z,8.37
2018-10-07T23:26:14.682Z,7.90
2018-10-07T23:28:43.241Z,7.77
2018-10-07T23:31:11.764Z,5.17
2018-10-07T23:33:40.312Z,5.13
2018-10-07T23:36:08.865Z,6.50
2018-10-07T23:38:37.344Z,4.40
2018-10-07T23:41:05.843Z,4.53
2018-10-07T23:43:34.462Z,5.43
2018-10-07T23:46:02.929Z,4.37
2018-10-07T23:48:31.594Z,12.20
2018-10-07T23:51:00.060Z,5.13
2018-10-07T23:53:28.741Z,6.50
2018-10-07T23:55:57.302Z,7.57
